createdAt,value
2019-01-09T00:01:02.923Z,11.38
2019-01-09T00:03:31.202Z,19.20
2019-01-09T00:05:59.484Z,17.45
2019-01-09T00:08:27.795Z,11.08
2019-01-09T00:10:56.084Z,17.52
2019-01-09T00:13:24.445Z,6.60
2019-01-09T00:15:52.770Z,6.60
2019-01-09T00:18:21.120Z,6.70
2019-01-09T00:20:49.403Z,5.47
2019-01-09T00:23:17.724Z,10.93
2019-01-09T00:25:46.009Z,8.08
2019-01-09T00:28:14.359Z,10.80
2019-01-09T00:30:42.811Z,14.10
2019-01-09T00:33:11.165Z,8.43
2019-01-09T00:35:39.452Z,11.97
2019-01-09T00:38:07.838Z,32.67
2019-01-09T00:40:36.118Z,10.18
2019-01-09T00:43:04.403Z,11.75
2019-01-09T00:45:32.717Z,15.38
2019-01-09T00:48:01.016Z,11.03
2019-01-09T00:50:29.293Z,11.20
2019-01-09T00:52:57.614Z,16.35
2019-01-09T00:55:25.912Z,14.98
2019-01-09T00:57:54.184Z,11.28
2019-01-09T01:00:22.508Z,17.92
2019-01-09T01:03:19.220Z,11.28
2019-01-09T01:06:11.575Z,5.83
2019-01-09T01:08:45.673Z,7.95
2019-01-09T01:11:25.962Z,18.55
2019-01-09T01:14:03.014Z,10.18
2019-01-09T01:16:58.478Z,10.63
2019-01-09T01:19:41.686Z,4.55
2019-01-09T01:22:13.266Z,11.60
2019-01-09T01:25:04.122Z,14.13
2019-01-09T01:27:35.696Z,5.97
2019-01-09T01:30:07.238Z,13.80
2019-01-09T01:32:53.675Z,20.10
2019-01-09T01:35:54.853Z,7.45
2019-01-09T01:38:32.547Z,13.83
2019-01-09T01:41:15.979Z,5.62
2019-01-09T01:43:47.554Z,10.98
2019-01-09T01:46:28.209Z,16.35
2019-01-09T01:49:11.606Z,13.98
2019-01-09T01:51:51.928Z,6.60
2019-01-09T01:54:32.186Z,8.48
2019-01-09T01:57:29.288Z,14.90
2019-01-09T02:00:00.962Z,9.45
2019-01-09T02:02:50.213Z,6.37
2019-01-09T02:05:21.797Z,7.17
2019-01-09T02:08:05.450Z,6.15
2019-01-09T02:10:39.771Z,5.87
2019-01-09T02:13:16.853Z,11.83
2019-01-09T02:16:04.791Z,6.53
2019-01-09T02:18:36.342Z,9.98
2019-01-09T02:21:35.053Z,6.47
2019-01-09T02:24:24.492Z,10.00
2019-01-09T02:26:58.887Z,10.63
2019-01-09T02:29:30.418Z,6.30
2019-01-09T02:32:10.755Z,8.55
2019-01-09T02:34:39.038Z,13.30
2019-01-09T02:37:07.410Z,8.50
2019-01-09T02:39:35.704Z,18.27
2019-01-09T02:42:04.048Z,11.30
2019-01-09T02:44:32.730Z,15.00
2019-01-09T02:47:01.132Z,7.55
2019-01-09T02:49:29.413Z,17.60
2019-01-09T02:51:57.713Z,12.50
2019-01-09T02:54:26.103Z,6.83
2019-01-09T02:56:54.395Z,10.63
2019-01-09T02:59:22.842Z,16.50
2019-01-09T03:01:52.514Z,10.03
2019-01-09T03:04:20.807Z,7.37
2019-01-09T03:06:49.096Z,9.18
2019-01-09T03:09:17.399Z,9.28
2019-01-09T03:11:45.691Z,8.38
2019-01-09T03:14:14.107Z,7.75
2019-01-09T03:16:42.429Z,5.35
2019-01-09T03:19:10.781Z,7.78
2019-01-09T03:21:39.061Z,8.30
2019-01-09T03:24:07.367Z,5.97
2019-01-09T03:26:35.715Z,8.85
2019-01-09T03:29:04.138Z,9.33
2019-01-09T03:31:32.591Z,18.75
2019-01-09T03:34:00.939Z,16.95
2019-01-09T03:36:32.959Z,11.88
2019-01-09T03:38:59.328Z,7.10
2019-01-09T03:41:27.610Z,14.87
2019-01-09T03:43:55.961Z,7.17
2019-01-09T03:46:25.936Z,12.20
2019-01-09T03:48:54.208Z,12.82
2019-01-09T03:51:22.494Z,10.50
2019-01-09T03:53:50.942Z,7.08
2019-01-09T03:56:19.229Z,11.03
2019-01-09T03:58:47.504Z,11.93
2019-01-09T04:01:15.817Z,7.10
2019-01-09T04:03:44.104Z,9.45
2019-01-09T04:06:12.448Z,8.65
2019-01-09T04:08:40.841Z,5.10
2019-01-09T04:11:09.118Z,9.98
2019-01-09T04:13:37.465Z,7.12
2019-01-09T04:16:05.857Z,11.08
2019-01-09T04:18:34.142Z,8.35
2019-01-09T04:21:02.419Z,6.50
2019-01-09T04:23:30.807Z,12.60
2019-01-09T04:25:59.090Z,7.55
2019-01-09T04:28:27.443Z,11.65
2019-01-09T04:30:55.771Z,8.70
2019-01-09T04:33:24.040Z,6.53
2019-01-09T04:35:52.392Z,10.40
2019-01-09T04:38:21.770Z,15.72
2019-01-09T04:40:50.053Z,11.28
2019-01-09T04:43:18.344Z,10.75
2019-01-09T04:45:46.672Z,12.73
2019-01-09T04:48:15.023Z,7.20
2019-01-09T04:50:43.305Z,7.08
2019-01-09T04:53:11.681Z,5.67
2019-01-09T04:55:39.960Z,10.75
2019-01-09T04:58:08.306Z,14.28
2019-01-09T05:00:36.778Z,8.23
2019-01-09T05:03:05.140Z,11.48
2019-01-09T05:05:33.421Z,9.40
2019-01-09T05:08:01.731Z,8.48
2019-01-09T05:10:30.007Z,2.95
2019-01-09T05:12:58.499Z,7.03
2019-01-09T05:15:26.894Z,5.78
2019-01-09T05:17:55.322Z,4.78
2019-01-09T05:20:23.682Z,4.80
2019-01-09T05:22:52.067Z,8.55
2019-01-09T05:25:20.417Z,3.40
2019-01-09T05:27:48.812Z,7.65
2019-01-09T05:30:17.284Z,4.62
2019-01-09T05:32:45.680Z,5.92
2019-01-09T05:35:14.073Z,7.33
2019-01-09T05:37:42.412Z,10.13
2019-01-09T05:40:10.772Z,10.13
2019-01-09T05:42:39.119Z,5.05
2019-01-09T05:45:07.497Z,3.67
2019-01-09T05:47:35.785Z,4.05
2019-01-09T05:50:05.777Z,5.65
2019-01-09T05:52:34.235Z,5.17
2019-01-09T05:55:02.604Z,9.28
2019-01-09T05:57:30.947Z,11.68
2019-01-09T05:59:59.283Z,5.95
2019-01-09T06:02:27.965Z,6.08
2019-01-09T06:04:56.323Z,4.55
2019-01-09T06:07:24.718Z,4.25
2019-01-09T06:09:53.069Z,5.15
2019-01-09T06:12:21.432Z,12.63
2019-01-09T06:14:49.824Z,7.72
2019-01-09T06:17:18.100Z,5.35
2019-01-09T06:19:46.385Z,8.50
2019-01-09T06:22:14.781Z,4.20
2019-01-09T06:24:43.067Z,6.85
2019-01-09T06:27:11.421Z,15.68
2019-01-09T06:29:39.819Z,10.65
2019-01-09T06:32:08.230Z,5.30
2019-01-09T06:34:36.506Z,8.20
2019-01-09T06:37:04.822Z,8.08
2019-01-09T06:39:33.168Z,12.95
2019-01-09T06:42:01.460Z,7.65
2019-01-09T06:44:29.860Z,11.22
2019-01-09T06:46:58.131Z,18.23
2019-01-09T06:49:26.552Z,16.82
2019-01-09T06:51:54.939Z,12.93
2019-01-09T06:54:23.224Z,19.37
2019-01-09T06:56:51.518Z,22.20
2019-01-09T06:59:19.847Z,31.65
2019-01-09T07:01:48.192Z,22.82
2019-01-09T07:04:16.481Z,17.25
2019-01-09T07:06:44.815Z,26.48
2019-01-09T07:09:13.091Z,12.50
2019-01-09T07:11:41.373Z,15.80
2019-01-09T07:14:09.717Z,20.35
2019-01-09T07:16:37.999Z,17.02
2019-01-09T07:19:06.354Z,35.98
2019-01-09T07:21:34.691Z,40.95
2019-01-09T07:24:03.059Z,32.10
2019-01-09T07:26:31.554Z,30.52
2019-01-09T07:28:59.877Z,30.45
2019-01-09T07:31:28.152Z,12.65
2019-01-09T07:33:56.433Z,7.80
2019-01-09T07:36:24.759Z,9.80
2019-01-09T07:38:53.122Z,7.75
2019-01-09T07:41:21.410Z,9.00
2019-01-09T07:43:49.806Z,12.37
2019-01-09T07:46:18.090Z,12.80
2019-01-09T07:48:46.549Z,6.58
2019-01-09T07:51:14.950Z,16.40
2019-01-09T07:53:43.240Z,11.12
2019-01-09T07:56:11.524Z,30.62
2019-01-09T07:58:39.875Z,10.90
2019-01-09T08:01:08.293Z,14.58
2019-01-09T08:03:36.585Z,13.45
2019-01-09T08:06:04.992Z,22.58
2019-01-09T08:08:33.358Z,17.12
2019-01-09T08:11:01.712Z,19.42
2019-01-09T08:13:30.297Z,14.98
2019-01-09T08:15:58.579Z,25.12
2019-01-09T08:18:26.879Z,20.45
2019-01-09T08:20:55.215Z,17.77
2019-01-09T08:23:23.501Z,17.92
2019-01-09T08:25:51.855Z,11.18
2019-01-09T08:28:20.181Z,28.47
2019-01-09T08:30:48.545Z,17.60
2019-01-09T08:33:16.904Z,21.30
2019-01-09T08:35:45.295Z,8.48
2019-01-09T08:38:13.591Z,13.48
2019-01-09T08:40:42.511Z,19.00
2019-01-09T08:43:10.928Z,10.63
2019-01-09T08:45:39.201Z,5.83
2019-01-09T08:48:07.474Z,8.28
2019-01-09T08:50:35.787Z,22.48
2019-01-09T08:53:04.438Z,19.67
2019-01-09T08:55:32.732Z,21.50
2019-01-09T08:58:01.087Z,21.82
2019-01-09T09:00:29.366Z,28.40
2019-01-09T09:02:57.738Z,30.25
2019-01-09T09:05:26.067Z,20.50
2019-01-09T09:07:59.610Z,24.90
2019-01-09T09:10:28.035Z,37.15
2019-01-09T09:12:56.371Z,35.60
2019-01-09T09:15:24.656Z,22.67
2019-01-09T09:17:53.028Z,29.35
2019-01-09T09:20:21.433Z,42.95
2019-01-09T09:22:49.723Z,31.52
2019-01-09T09:25:18.089Z,33.80
2019-01-09T09:27:46.415Z,26.10
2019-01-09T09:30:17.121Z,26.48
2019-01-09T09:32:45.475Z,27.17
2019-01-09T09:35:13.862Z,18.07
2019-01-09T09:37:42.311Z,23.52
2019-01-09T09:40:14.214Z,25.43
2019-01-09T09:42:42.627Z,28.10
2019-01-09T09:45:11.644Z,19.40
2019-01-09T09:47:39.999Z,24.80
2019-01-09T09:50:16.161Z,23.55
2019-01-09T09:52:44.513Z,25.15
2019-01-09T09:55:13.302Z,26.05
2019-01-09T09:57:41.716Z,19.73
2019-01-09T10:00:13.592Z,25.82
2019-01-09T10:02:41.940Z,19.65
2019-01-09T10:05:10.341Z,48.15
2019-01-09T10:07:38.645Z,19.17
2019-01-09T10:10:10.319Z,13.03
2019-01-09T10:12:38.647Z,37.55
2019-01-09T10:15:10.403Z,21.60
2019-01-09T10:17:38.678Z,19.80
2019-01-09T10:20:10.276Z,20.97
2019-01-09T10:22:38.705Z,26.35
2019-01-09T10:25:07.402Z,12.70
2019-01-09T10:27:35.802Z,18.70
2019-01-09T10:30:07.463Z,16.30
2019-01-09T10:32:35.824Z,13.58
2019-01-09T10:35:04.422Z,20.05
2019-01-09T10:37:32.711Z,23.45
2019-01-09T10:40:01.022Z,28.25
2019-01-09T10:42:29.422Z,25.77
2019-01-09T10:44:57.719Z,26.10
2019-01-09T10:47:26.006Z,22.58
2019-01-09T10:49:54.324Z,16.17
2019-01-09T10:52:22.685Z,14.18
2019-01-09T10:54:50.977Z,19.95
2019-01-09T10:57:19.451Z,41.80
2019-01-09T10:59:47.820Z,26.05
2019-01-09T11:02:16.252Z,17.32
2019-01-09T11:04:44.796Z,17.45
2019-01-09T11:07:13.223Z,17.67
2019-01-09T11:09:41.569Z,24.77
2019-01-09T11:12:09.917Z,25.05
2019-01-09T11:14:38.267Z,22.80
2019-01-09T11:17:06.627Z,21.77
2019-01-09T11:19:35.031Z,39.38
2019-01-09T11:22:03.469Z,26.68
2019-01-09T11:24:31.835Z,18.37
2019-01-09T11:27:00.166Z,14.95
2019-01-09T11:29:28.589Z,23.22
2019-01-09T11:31:56.941Z,23.18
2019-01-09T11:34:25.259Z,15.75
2019-01-09T11:36:53.614Z,25.17
2019-01-09T11:39:21.905Z,22.37
2019-01-09T11:41:50.376Z,16.77
2019-01-09T11:44:18.657Z,24.43
2019-01-09T11:46:46.953Z,21.93
2019-01-09T11:49:15.577Z,16.75
2019-01-09T11:51:43.861Z,22.62
2019-01-09T11:54:12.155Z,16.97
2019-01-09T11:56:40.482Z,32.55
2019-01-09T11:59:08.927Z,28.98
2019-01-09T12:01:37.286Z,39.15
2019-01-09T12:04:05.777Z,27.70
2019-01-09T12:06:34.189Z,20.82
2019-01-09T12:09:04.625Z,22.85
2019-01-09T12:11:32.903Z,27.05
2019-01-09T12:14:01.328Z,27.10
2019-01-09T12:16:29.835Z,31.17
2019-01-09T12:18:58.163Z,26.85
2019-01-09T12:21:26.658Z,16.40
2019-01-09T12:23:55.158Z,21.85
2019-01-09T12:26:23.685Z,12.75
2019-01-09T12:28:53.704Z,15.70
2019-01-09T12:31:22.433Z,13.08
2019-01-09T12:33:50.780Z,14.70
2019-01-09T12:36:19.278Z,15.25
2019-01-09T12:38:47.793Z,12.82
2019-01-09T12:41:16.326Z,16.23
2019-01-09T12:43:44.808Z,7.33
2019-01-09T12:46:13.304Z,7.42
2019-01-09T12:48:41.698Z,9.75
2019-01-09T12:51:09.986Z,10.40
2019-01-09T12:53:38.481Z,16.97
2019-01-09T12:56:06.958Z,10.08
2019-01-09T12:58:35.375Z,15.13
2019-01-09T13:01:03.881Z,8.83
2019-01-09T13:03:32.207Z,18.75
2019-01-09T13:06:00.487Z,8.65
2019-01-09T13:08:28.774Z,11.75
2019-01-09T13:10:57.107Z,18.77
2019-01-09T13:13:25.596Z,9.20
2019-01-09T13:15:53.964Z,11.40
2019-01-09T13:18:22.300Z,18.32
2019-01-09T13:20:50.799Z,17.10
2019-01-09T13:23:19.304Z,10.05
2019-01-09T13:25:47.698Z,14.80
2019-01-09T13:28:16.048Z,16.57
2019-01-09T13:30:44.533Z,10.80
2019-01-09T13:33:13.081Z,8.20
2019-01-09T13:35:41.369Z,15.65
2019-01-09T13:38:09.860Z,18.48
2019-01-09T13:40:38.173Z,19.20
2019-01-09T13:43:06.674Z,28.32
2019-01-09T13:45:34.958Z,18.60
2019-01-09T13:48:03.287Z,12.58
2019-01-09T13:50:31.783Z,17.52
2019-01-09T13:53:00.237Z,25.80
2019-01-09T13:55:28.777Z,11.20
2019-01-09T13:57:57.194Z,16.52
2019-01-09T14:00:25.698Z,11.33
2019-01-09T14:02:54.217Z,6.37
2019-01-09T14:05:22.568Z,13.22
2019-01-09T14:07:51.078Z,11.38
2019-01-09T14:10:21.534Z,10.65
2019-01-09T14:12:50.028Z,9.30
2019-01-09T14:15:20.317Z,12.18
2019-01-09T14:17:48.637Z,13.38
2019-01-09T14:20:17.118Z,13.70
2019-01-09T14:22:46.662Z,17.37
2019-01-09T14:25:16.523Z,21.65
2019-01-09T14:27:44.941Z,25.80
2019-01-09T14:30:19.191Z,22.00
2019-01-09T14:32:47.718Z,21.55
2019-01-09T14:35:16.072Z,42.73
2019-01-09T14:37:44.565Z,30.10
2019-01-09T14:40:18.584Z,27.52
2019-01-09T14:42:47.012Z,54.23
2019-01-09T14:45:16.509Z,33.33
2019-01-09T14:47:44.982Z,45.48
2019-01-09T14:50:15.905Z,23.52
2019-01-09T14:52:44.201Z,20.95
2019-01-09T14:55:12.736Z,14.58
2019-01-09T14:57:41.019Z,10.15
2019-01-09T15:00:12.881Z,14.38
2019-01-09T15:02:41.211Z,10.18
2019-01-09T15:05:09.712Z,16.65
2019-01-09T15:07:38.058Z,7.50
2019-01-09T15:10:12.709Z,14.83
2019-01-09T15:12:41.048Z,8.45
2019-01-09T15:15:12.542Z,8.70
2019-01-09T15:17:41.084Z,6.90
2019-01-09T15:20:12.368Z,10.35
2019-01-09T15:22:40.860Z,13.32
2019-01-09T15:25:10.891Z,11.68
2019-01-09T15:27:39.383Z,7.28
2019-01-09T15:30:23.195Z,16.37
2019-01-09T15:32:51.691Z,21.57
2019-01-09T15:35:20.183Z,22.35
2019-01-09T15:37:48.726Z,18.20
2019-01-09T15:40:24.586Z,12.93
2019-01-09T15:42:53.119Z,12.93
2019-01-09T15:45:21.620Z,16.90
2019-01-09T15:47:50.122Z,24.55
2019-01-09T15:50:21.512Z,37.98
2019-01-09T15:52:50.022Z,28.35
2019-01-09T15:55:18.623Z,27.70
2019-01-09T15:57:48.946Z,20.65
2019-01-09T16:00:25.951Z,27.85
2019-01-09T16:02:54.568Z,12.78
2019-01-09T16:05:23.054Z,22.58
2019-01-09T16:07:51.542Z,18.65
2019-01-09T16:10:22.176Z,21.87
2019-01-09T16:12:50.660Z,20.68
2019-01-09T16:15:19.655Z,9.55
2019-01-09T16:17:48.197Z,13.45
2019-01-09T16:20:21.115Z,9.40
2019-01-09T16:22:49.600Z,6.40
2019-01-09T16:25:18.131Z,6.00
2019-01-09T16:27:46.616Z,9.73
2019-01-09T16:30:33.933Z,6.97
2019-01-09T16:32:57.385Z,11.53
2019-01-09T16:35:26.067Z,6.25
2019-01-09T16:37:54.588Z,12.28
2019-01-09T16:40:23.758Z,12.20
2019-01-09T16:42:52.268Z,7.37
2019-01-09T16:45:20.798Z,8.00
2019-01-09T16:47:49.285Z,9.55
2019-01-09T16:50:24.686Z,3.27
2019-01-09T16:52:53.215Z,8.55
2019-01-09T16:55:21.706Z,8.38
2019-01-09T16:57:50.187Z,14.23
2019-01-09T17:00:27.782Z,14.10
2019-01-09T17:02:56.270Z,8.03
2019-01-09T17:05:24.758Z,7.12
2019-01-09T17:07:53.578Z,13.05
2019-01-09T17:10:22.076Z,12.15
2019-01-09T17:12:50.579Z,14.45
2019-01-09T17:15:19.517Z,26.52
2019-01-09T17:17:48.005Z,15.50
2019-01-09T17:20:31.506Z,15.45
2019-01-09T17:23:00.119Z,13.18
2019-01-09T17:25:28.616Z,14.03
2019-01-09T17:27:57.146Z,11.15
2019-01-09T17:30:30.483Z,6.78
2019-01-09T17:32:58.975Z,7.97
2019-01-09T17:35:27.519Z,9.08
2019-01-09T17:37:56.006Z,9.43
2019-01-09T17:40:24.896Z,10.50
2019-01-09T17:42:53.537Z,15.43
2019-01-09T17:45:22.032Z,16.52
2019-01-09T17:47:50.518Z,10.40
2019-01-09T17:50:24.037Z,17.40
2019-01-09T17:52:52.907Z,16.05
2019-01-09T17:55:21.399Z,8.15
2019-01-09T17:57:49.954Z,5.15
2019-01-09T18:00:20.934Z,4.85
2019-01-09T18:02:49.434Z,6.50
2019-01-09T18:05:18.193Z,5.25
2019-01-09T18:07:46.697Z,4.85
2019-01-09T18:10:20.441Z,18.55
2019-01-09T18:12:49.079Z,5.45
2019-01-09T18:15:19.474Z,12.00
2019-01-09T18:17:47.957Z,13.00
2019-01-09T18:20:18.004Z,6.92
2019-01-09T18:22:46.479Z,15.05
2019-01-09T18:25:23.515Z,10.18
2019-01-09T18:27:53.580Z,17.62
2019-01-09T18:30:34.127Z,8.70
2019-01-09T18:33:08.791Z,7.87
2019-01-09T18:35:40.844Z,13.25
2019-01-09T18:38:29.061Z,4.92
2019-01-09T18:41:09.760Z,8.53
2019-01-09T18:43:44.093Z,5.97
2019-01-09T18:46:46.969Z,6.85
2019-01-09T18:49:33.260Z,7.20
2019-01-09T18:52:24.451Z,7.60
2019-01-09T18:54:52.949Z,6.70
2019-01-09T18:57:21.446Z,5.97
2019-01-09T18:59:49.975Z,7.08
2019-01-09T19:02:18.473Z,8.30
2019-01-09T19:04:47.352Z,6.17
2019-01-09T19:07:15.896Z,7.55
2019-01-09T19:09:44.381Z,3.70
2019-01-09T19:12:12.892Z,6.67
2019-01-09T19:14:41.419Z,5.25
2019-01-09T19:17:09.899Z,5.12
2019-01-09T19:19:38.393Z,5.78
2019-01-09T19:22:06.926Z,7.83
2019-01-09T19:24:35.413Z,15.48
2019-01-09T19:27:03.918Z,13.20
2019-01-09T19:29:32.445Z,8.58
2019-01-09T19:32:01.030Z,13.25
2019-01-09T19:34:29.529Z,8.55
2019-01-09T19:36:58.056Z,13.05
2019-01-09T19:39:26.551Z,14.05
2019-01-09T19:41:55.051Z,14.38
2019-01-09T19:44:23.608Z,20.37
2019-01-09T19:46:55.143Z,19.48
2019-01-09T19:49:25.193Z,12.53
2019-01-09T19:51:53.999Z,5.67
2019-01-09T19:54:22.504Z,12.07
2019-01-09T19:56:51.014Z,14.75
2019-01-09T19:59:19.568Z,16.45
2019-01-09T20:01:48.067Z,18.77
2019-01-09T20:04:16.649Z,7.75
2019-01-09T20:06:45.196Z,18.73
2019-01-09T20:09:13.684Z,11.30
2019-01-09T20:11:42.230Z,15.03
2019-01-09T20:14:10.704Z,7.20
2019-01-09T20:16:39.288Z,13.20
2019-01-09T20:19:07.875Z,12.88
2019-01-09T20:21:36.431Z,13.40
2019-01-09T20:24:04.923Z,13.32
2019-01-09T20:26:33.445Z,13.13
2019-01-09T20:29:01.928Z,9.15
2019-01-09T20:31:30.490Z,10.98
2019-01-09T20:33:58.996Z,5.22
2019-01-09T20:36:27.534Z,6.85
2019-01-09T20:38:56.056Z,6.25
2019-01-09T20:41:24.715Z,9.18
2019-01-09T20:43:53.248Z,7.97
2019-01-09T20:46:21.750Z,14.18
2019-01-09T20:48:50.236Z,13.40
2019-01-09T20:51:18.869Z,9.20
2019-01-09T20:53:47.327Z,10.20
2019-01-09T20:56:15.827Z,11.10
2019-01-09T20:58:44.483Z,12.10
2019-01-09T21:01:13.149Z,6.78
2019-01-09T21:03:41.636Z,9.73
2019-01-09T21:06:10.152Z,8.63
2019-01-09T21:08:38.773Z,9.68
2019-01-09T21:11:07.221Z,9.05
2019-01-09T21:13:35.766Z,8.93
2019-01-09T21:16:04.354Z,20.15
2019-01-09T21:18:32.863Z,13.83
2019-01-09T21:21:01.398Z,17.40
2019-01-09T21:23:29.898Z,11.28
2019-01-09T21:25:58.393Z,10.95
2019-01-09T21:28:26.805Z,10.68
2019-01-09T21:30:55.297Z,9.35
2019-01-09T21:33:23.794Z,6.53
2019-01-09T21:35:52.315Z,7.53
2019-01-09T21:38:20.803Z,9.83
2019-01-09T21:40:49.291Z,11.40
2019-01-09T21:43:17.853Z,10.95
2019-01-09T21:45:46.343Z,10.98
2019-01-09T21:48:14.930Z,10.72
2019-01-09T21:50:43.456Z,7.30
2019-01-09T21:53:11.756Z,13.03
2019-01-09T21:55:40.255Z,9.03
2019-01-09T21:58:08.780Z,8.50
2019-01-09T22:00:37.262Z,7.35
2019-01-09T22:03:05.754Z,8.38
2019-01-09T22:05:34.090Z,11.05
2019-01-09T22:08:02.515Z,10.20
2019-01-09T22:10:33.081Z,14.33
2019-01-09T22:13:01.475Z,11.03
2019-01-09T22:15:29.902Z,10.60
2019-01-09T22:17:58.176Z,12.63
2019-01-09T22:20:26.572Z,5.22
2019-01-09T22:22:55.193Z,8.98
2019-01-09T22:25:23.652Z,11.15
2019-01-09T22:27:51.985Z,18.15
2019-01-09T22:30:22.568Z,9.95
2019-01-09T22:32:50.851Z,8.45
2019-01-09T22:35:19.231Z,14.35
2019-01-09T22:37:47.517Z,8.18
2019-01-09T22:40:17.748Z,8.83
2019-01-09T22:42:46.072Z,8.65
2019-01-09T22:45:15.163Z,14.15
2019-01-09T22:47:43.519Z,9.33
2019-01-09T22:50:14.380Z,10.53
2019-01-09T22:52:42.732Z,15.88
2019-01-09T22:55:11.404Z,11.33
2019-01-09T22:57:39.751Z,7.90
2019-01-09T23:00:32.573Z,9.60
2019-01-09T23:03:01.239Z,12.58
2019-01-09T23:05:29.525Z,13.13
2019-01-09T23:07:57.903Z,10.38
2019-01-09T23:10:26.282Z,19.42
2019-01-09T23:12:54.637Z,14.85
2019-01-09T23:15:23.063Z,12.23
2019-01-09T23:17:51.447Z,15.08
2019-01-09T23:20:19.739Z,14.58
2019-01-09T23:22:48.106Z,12.37
2019-01-09T23:25:16.430Z,10.32
2019-01-09T23:27:44.708Z,18.95
2019-01-09T23:30:13.511Z,27.77
2019-01-09T23:32:41.908Z,16.75
2019-01-09T23:35:11.692Z,13.35
2019-01-09T23:37:40.041Z,25.62
2019-01-09T23:40:13.715Z,11.90
2019-01-09T23:42:42.059Z,11.60
2019-01-09T23:45:11.588Z,16.25
2019-01-09T23:47:39.917Z,18.52
2019-01-09T23:50:09.538Z,17.07
2019-01-09T23:52:37.893Z,20.88
2019-01-09T23:55:08.890Z,22.80
2019-01-09T23:57:37.190Z,18.27
